Noti, Oregon
Current Conditions -  °F | °C
As of 12:54 PM on Monday 24 Nov 2014 (Local Time) from KEUG Reporting Station
Overcast Overcast  
Wind Chill: 53°   Ceiling: 5000
Heat Index: 53°   Visibility: 10mi
Dew Point: 41°   Wind: 6mph
Humidity: 64%   Direction: NA
Pressure: 30.36"   Gusts: NA
Location:  44.06°N, 123.45°W
Report Text: KEUG 242054Z VRB05KT 10SM BKN050 OVC120 12/05 A3036 RMK AO2 SLP280 T01170050 58013
Loading
Personal Weather Stations






























Interactive Weather Map New forecast layout! Learn more

10-Day Weather Forecast

Advertisements
Track Severe Weather on mobile